Happy Camp, California
Current Conditions -  °F | °C
As of 4:56 PM on Friday 24 Oct 2014 (Local Time) from KCEC Reporting Station
Few Clouds Few Clouds  
Wind Chill: 64°   Ceiling: Unl
Heat Index: 64°   Visibility: 10mi
Dew Point: 56°   Wind: 12mph
Humidity: 75%   Direction: 160°SSE
Pressure: 29.72"   Gusts: NA
Location:  41.79°N, 123.38°W
Report Text: KCEC 242356Z AUTO 16010KT 10SM FEW044 18/13 A2972 RMK AO2 SLP065 T01780133 10206 20144 56022
Loading
Personal Weather Stations






























Interactive Weather Map New forecast layout! Learn more

10-Day Weather Forecast

Advertisements
Track Severe Weather on mobile